sensor_id;sensor_type;location;lat;lon;timestamp;pressure;altitude;pressure_sealevel;temperature;humidity
33075;BME280;19433;51.292;6.868;2023-02-11T00:27:11;102188.88;;;4.34;100.00
33075;BME280;19433;51.292;6.868;2023-02-11T00:32:12;102223.09;;;4.50;100.00
33075;BME280;19433;51.292;6.868;2023-02-11T00:44:58;102220.13;;;4.65;100.00
33075;BME280;19433;51.292;6.868;2023-02-11T00:47:24;102190.38;;;4.49;100.00
33075;BME280;19433;51.292;6.868;2023-02-11T00:49:49;102224.97;;;4.61;100.00
33075;BME280;19433;51.292;6.868;2023-02-11T01:33:38;102206.31;;;4.66;100.00
33075;BME280;19433;51.292;6.868;2023-02-11T03:11:49;102130.16;;;4.60;100.00
33075;BME280;19433;51.292;6.868;2023-02-11T03:19:48;102144.84;;;4.81;100.00
33075;BME280;19433;51.292;6.868;2023-02-11T03:32:49;102126.56;;;4.59;100.00
33075;BME280;19433;51.292;6.868;2023-02-11T03:58:32;102133.41;;;4.54;100.00
33075;BME280;19433;51.292;6.868;2023-02-11T04:39:49;102140.75;;;4.65;100.00
33075;BME280;19433;51.292;6.868;2023-02-11T04:55:03;102127.19;;;4.41;100.00
33075;BME280;19433;51.292;6.868;2023-02-11T05:56:57;102106.63;;;4.13;100.00
33075;BME280;19433;51.292;6.868;2023-02-11T06:12:19;102132.88;;;4.15;100.00
33075;BME280;19433;51.292;6.868;2023-02-11T06:14:44;102142.13;;;4.26;100.00
33075;BME280;19433;51.292;6.868;2023-02-11T06:17:11;102110.25;;;4.13;100.00
33075;BME280;19433;51.292;6.868;2023-02-11T06:42:53;102128.16;;;4.17;100.00
33075;BME280;19433;51.292;6.868;2023-02-11T07:11:12;102141.88;;;4.40;100.00
33075;BME280;19433;51.292;6.868;2023-02-11T07:13:38;102159.75;;;4.44;100.00
33075;BME280;19433;51.292;6.868;2023-02-11T07:16:07;102168.25;;;4.52;100.00
33075;BME280;19433;51.292;6.868;2023-02-11T07:18:33;102165.75;;;4.49;100.00
33075;BME280;19433;51.292;6.868;2023-02-11T07:20:59;102145.72;;;4.37;100.00
33075;BME280;19433;51.292;6.868;2023-02-11T07:26:55;102160.91;;;4.52;100.00
33075;BME280;19433;51.292;6.868;2023-02-11T07:29:20;102163.88;;;4.49;100.00
33075;BME280;19433;51.292;6.868;2023-02-11T07:31:45;102163.28;;;4.57;100.00
33075;BME280;19433;51.292;6.868;2023-02-11T07:34:11;102163.53;;;4.54;100.00
33075;BME280;19433;51.292;6.868;2023-02-11T07:36:36;102168.13;;;4.53;100.00
33075;BME280;19433;51.292;6.868;2023-02-11T07:39:02;102179.69;;;4.68;100.00
33075;BME280;19433;51.292;6.868;2023-02-11T07:41:28;102169.22;;;4.62;100.00
33075;BME280;19433;51.292;6.868;2023-02-11T07:43:53;102186.03;;;4.69;100.00
33075;BME280;19433;51.292;6.868;2023-02-11T07:46:24;102180.06;;;4.64;100.00
33075;BME280;19433;51.292;6.868;2023-02-11T07:48:56;102184.41;;;4.66;100.00
33075;BME280;19433;51.292;6.868;2023-02-11T12:43:12;102297.97;;;7.19;100.00
33075;BME280;19433;51.292;6.868;2023-02-11T12:48:42;102282.91;;;7.14;100.00
33075;BME280;19433;51.292;6.868;2023-02-11T12:57:20;102276.44;;;7.24;100.00
33075;BME280;19433;51.292;6.868;2023-02-11T12:59:57;102270.47;;;7.19;100.00
33075;BME280;19433;51.292;6.868;2023-02-11T13:02:53;102263.66;;;7.14;100.00
33075;BME280;19433;51.292;6.868;2023-02-11T13:05:30;102278.28;;;7.14;100.00
33075;BME280;19433;51.292;6.868;2023-02-11T13:08:03;102269.03;;;7.15;100.00
33075;BME280;19433;51.292;6.868;2023-02-11T13:10:44;102271.06;;;7.23;100.00
33075;BME280;19433;51.292;6.868;2023-02-11T13:13:25;102263.41;;;7.26;100.00
33075;BME280;19433;51.292;6.868;2023-02-11T13:16:06;102268.66;;;7.29;100.00
33075;BME280;19433;51.292;6.868;2023-02-11T13:18:55;102262.50;;;7.47;100.00
33075;BME280;19433;51.292;6.868;2023-02-11T13:24:38;102279.78;;;7.78;100.00
33075;BME280;19433;51.292;6.868;2023-02-11T13:33:29;102285.28;;;7.78;100.00
33075;BME280;19433;51.292;6.868;2023-02-11T13:38:34;102270.81;;;8.04;100.00
33075;BME280;19433;51.292;6.868;2023-02-11T13:41:27;102278.34;;;8.02;100.00
33075;BME280;19433;51.292;6.868;2023-02-11T13:43:59;102266.19;;;8.15;100.00
33075;BME280;19433;51.292;6.868;2023-02-11T13:49:19;102275.84;;;7.80;100.00
33075;BME280;19433;51.292;6.868;2023-02-11T13:51:45;102273.84;;;7.82;100.00
33075;BME280;19433;51.292;6.868;2023-02-11T14:24:58;102276.59;;;8.11;100.00
33075;BME280;19433;51.292;6.868;2023-02-11T14:42:49;102279.38;;;8.69;100.00
33075;BME280;19433;51.292;6.868;2023-02-11T14:45:20;102282.66;;;8.72;100.00
33075;BME280;19433;51.292;6.868;2023-02-11T14:47:54;102281.66;;;8.73;100.00
33075;BME280;19433;51.292;6.868;2023-02-11T14:51:05;102274.88;;;8.68;100.00
33075;BME280;19433;51.292;6.868;2023-02-11T14:57:07;102290.25;;;8.41;100.00
33075;BME280;19433;51.292;6.868;2023-02-11T15:03:02;102291.72;;;8.36;100.00
33075;BME280;19433;51.292;6.868;2023-02-11T15:05:28;102298.38;;;8.43;100.00
33075;BME280;19433;51.292;6.868;2023-02-11T15:07:56;102292.13;;;8.60;100.00
33075;BME280;19433;51.292;6.868;2023-02-11T15:13:44;102290.69;;;8.56;100.00
33075;BME280;19433;51.292;6.868;2023-02-11T15:16:15;102277.94;;;8.45;100.00
33075;BME280;19433;51.292;6.868;2023-02-11T15:21:50;102284.19;;;8.38;100.00
33075;BME280;19433;51.292;6.868;2023-02-11T15:29:24;102302.28;;;8.21;100.00
33075;BME280;19433;51.292;6.868;2023-02-11T15:38:33;102303.22;;;7.72;100.00
33075;BME280;19433;51.292;6.868;2023-02-11T15:44:31;102321.88;;;7.68;100.00
33075;BME280;19433;51.292;6.868;2023-02-11T15:47:08;102304.94;;;7.63;100.00
33075;BME280;19433;51.292;6.868;2023-02-11T15:52:33;102307.38;;;7.66;100.00
33075;BME280;19433;51.292;6.868;2023-02-11T15:54:59;102293.22;;;7.61;100.00
33075;BME280;19433;51.292;6.868;2023-02-11T15:57:26;102311.88;;;7.58;100.00
33075;BME280;19433;51.292;6.868;2023-02-11T15:59:53;102310.97;;;7.48;100.00
33075;BME280;19433;51.292;6.868;2023-02-11T16:02:25;102312.53;;;7.40;100.00
33075;BME280;19433;51.292;6.868;2023-02-11T16:05:05;102308.50;;;7.45;100.00
33075;BME280;19433;51.292;6.868;2023-02-11T16:11:00;102317.16;;;7.40;100.00
33075;BME280;19433;51.292;6.868;2023-02-11T16:13:29;102316.63;;;7.46;100.00
33075;BME280;19433;51.292;6.868;2023-02-11T16:16:19;102322.84;;;7.48;100.00
33075;BME280;19433;51.292;6.868;2023-02-11T16:18:51;102319.16;;;7.38;100.00
33075;BME280;19433;51.292;6.868;2023-02-11T16:21:36;102319.88;;;7.30;100.00
33075;BME280;19433;51.292;6.868;2023-02-11T16:27:38;102327.69;;;7.35;100.00
33075;BME280;19433;51.292;6.868;2023-02-11T16:30:35;102333.50;;;7.32;100.00
33075;BME280;19433;51.292;6.868;2023-02-11T16:33:10;102342.78;;;7.40;100.00
33075;BME280;19433;51.292;6.868;2023-02-11T16:35:36;102333.78;;;7.38;100.00
33075;BME280;19433;51.292;6.868;2023-02-11T16:38:02;102351.50;;;7.46;100.00
33075;BME280;19433;51.292;6.868;2023-02-11T16:40:27;102339.19;;;7.50;100.00
33075;BME280;19433;51.292;6.868;2023-02-11T16:46:15;102342.31;;;7.35;100.00
33075;BME280;19433;51.292;6.868;2023-02-11T16:52:17;102338.38;;;7.28;100.00
33075;BME280;19433;51.292;6.868;2023-02-11T16:57:21;102353.00;;;7.29;100.00
33075;BME280;19433;51.292;6.868;2023-02-11T16:59:48;102354.97;;;7.48;100.00
33075;BME280;19433;51.292;6.868;2023-02-11T17:02:31;102351.91;;;7.41;100.00
33075;BME280;19433;51.292;6.868;2023-02-11T17:04:59;102344.50;;;7.32;100.00
33075;BME280;19433;51.292;6.868;2023-02-11T17:07:25;102359.91;;;7.23;100.00
33075;BME280;19433;51.292;6.868;2023-02-11T17:09:51;102346.91;;;7.25;100.00
33075;BME280;19433;51.292;6.868;2023-02-11T17:12:16;102345.41;;;7.21;100.00
33075;BME280;19433;51.292;6.868;2023-02-11T17:14:42;102370.38;;;7.29;100.00
33075;BME280;19433;51.292;6.868;2023-02-11T17:17:08;102356.53;;;7.40;100.00
33075;BME280;19433;51.292;6.868;2023-02-11T17:19:33;102363.56;;;7.33;100.00
33075;BME280;19433;51.292;6.868;2023-02-11T17:21:59;102366.00;;;7.27;100.00
33075;BME280;19433;51.292;6.868;2023-02-11T17:24:24;102365.28;;;7.25;100.00
33075;BME280;19433;51.292;6.868;2023-02-11T17:26:49;102367.06;;;7.35;100.00
33075;BME280;19433;51.292;6.868;2023-02-11T17:29:20;102371.50;;;7.27;100.00
33075;BME280;19433;51.292;6.868;2023-02-11T17:31:46;102363.06;;;7.19;100.00
33075;BME280;19433;51.292;6.868;2023-02-11T17:34:11;102367.09;;;7.15;100.00
33075;BME280;19433;51.292;6.868;2023-02-11T17:36:36;102359.53;;;7.07;100.00
33075;BME280;19433;51.292;6.868;2023-02-11T17:39:03;102372.13;;;7.10;100.00
33075;BME280;19433;51.292;6.868;2023-02-11T17:41:29;102371.22;;;6.99;100.00
33075;BME280;19433;51.292;6.868;2023-02-11T17:43:59;102363.09;;;6.98;100.00
33075;BME280;19433;51.292;6.868;2023-02-11T17:46:25;102376.50;;;7.12;100.00
33075;BME280;19433;51.292;6.868;2023-02-11T17:48:52;102375.88;;;7.09;100.00
33075;BME280;19433;51.292;6.868;2023-02-11T17:53:51;102375.00;;;7.08;100.00
33075;BME280;19433;51.292;6.868;2023-02-11T17:56:16;102371.72;;;6.93;100.00
33075;BME280;19433;51.292;6.868;2023-02-11T17:58:42;102374.88;;;6.89;100.00
33075;BME280;19433;51.292;6.868;2023-02-11T18:01:07;102375.44;;;6.83;100.00
33075;BME280;19433;51.292;6.868;2023-02-11T18:03:32;102380.44;;;6.78;100.00
33075;BME280;19433;51.292;6.868;2023-02-11T18:06:02;102389.44;;;6.80;100.00
33075;BME280;19433;51.292;6.868;2023-02-11T18:08:27;102380.69;;;6.75;100.00
33075;BME280;19433;51.292;6.868;2023-02-11T18:10:53;102399.81;;;6.76;100.00
33075;BME280;19433;51.292;6.868;2023-02-11T18:13:19;102394.72;;;6.72;100.00
33075;BME280;19433;51.292;6.868;2023-02-11T18:15:44;102411.78;;;6.75;100.00
33075;BME280;19433;51.292;6.868;2023-02-11T18:18:09;102410.41;;;6.81;100.00
33075;BME280;19433;51.292;6.868;2023-02-11T18:20:35;102414.91;;;6.82;100.00
33075;BME280;19433;51.292;6.868;2023-02-11T18:23:00;102414.28;;;6.78;100.00
33075;BME280;19433;51.292;6.868;2023-02-11T18:25:26;102409.72;;;6.88;100.00
33075;BME280;19433;51.292;6.868;2023-02-11T18:30:33;102399.66;;;6.78;100.00
33075;BME280;19433;51.292;6.868;2023-02-11T18:32:58;102411.59;;;6.88;100.00
33075;BME280;19433;51.292;6.868;2023-02-11T18:35:24;102414.50;;;6.86;100.00
33075;BME280;19433;51.292;6.868;2023-02-11T18:37:50;102400.94;;;6.74;100.00
33075;BME280;19433;51.292;6.868;2023-02-11T18:40:16;102411.16;;;6.83;100.00
33075;BME280;19433;51.292;6.868;2023-02-11T18:42:42;102414.56;;;6.96;100.00
33075;BME280;19433;51.292;6.868;2023-02-11T18:45:11;102423.56;;;6.98;100.00
33075;BME280;19433;51.292;6.868;2023-02-11T18:47:37;102406.72;;;6.70;100.00
33075;BME280;19433;51.292;6.868;2023-02-11T18:50:07;102427.13;;;6.78;100.00
33075;BME280;19433;51.292;6.868;2023-02-11T18:52:34;102419.25;;;6.84;100.00
33075;BME280;19433;51.292;6.868;2023-02-11T18:55:04;102397.28;;;6.84;100.00
33075;BME280;19433;51.292;6.868;2023-02-11T18:57:29;102413.28;;;6.79;100.00
33075;BME280;19433;51.292;6.868;2023-02-11T18:59:55;102432.03;;;6.74;100.00
33075;BME280;19433;51.292;6.868;2023-02-11T19:02:20;102424.19;;;6.69;100.00
33075;BME280;19433;51.292;6.868;2023-02-11T19:04:45;102439.00;;;6.78;100.00
33075;BME280;19433;51.292;6.868;2023-02-11T19:07:11;102427.81;;;6.70;100.00
33075;BME280;19433;51.292;6.868;2023-02-11T19:09:36;102438.91;;;7.00;100.00
33075;BME280;19433;51.292;6.868;2023-02-11T19:12:02;102450.66;;;6.91;100.00
33075;BME280;19433;51.292;6.868;2023-02-11T19:14:30;102444.72;;;6.86;100.00
33075;BME280;19433;51.292;6.868;2023-02-11T19:16:58;102454.22;;;6.82;100.00
33075;BME280;19433;51.292;6.868;2023-02-11T19:19:27;102453.88;;;6.76;100.00
33075;BME280;19433;51.292;6.868;2023-02-11T19:21:54;102443.38;;;6.81;100.00
33075;BME280;19433;51.292;6.868;2023-02-11T19:24:20;102445.13;;;6.82;100.00
33075;BME280;19433;51.292;6.868;2023-02-11T19:26:46;102441.09;;;6.86;100.00
33075;BME280;19433;51.292;6.868;2023-02-11T19:29:12;102447.50;;;6.75;100.00
33075;BME280;19433;51.292;6.868;2023-02-11T19:31:37;102433.56;;;6.67;100.00
33075;BME280;19433;51.292;6.868;2023-02-11T19:34:03;102436.06;;;6.70;100.00
33075;BME280;19433;51.292;6.868;2023-02-11T19:36:29;102448.13;;;6.79;100.00
33075;BME280;19433;51.292;6.868;2023-02-11T19:39:02;102458.16;;;6.89;100.00
33075;BME280;19433;51.292;6.868;2023-02-11T19:41:29;102455.56;;;6.88;100.00
33075;BME280;19433;51.292;6.868;2023-02-11T19:43:54;102461.66;;;6.91;100.00
33075;BME280;19433;51.292;6.868;2023-02-11T19:46:24;102461.66;;;6.70;100.00
33075;BME280;19433;51.292;6.868;2023-02-11T19:48:50;102455.75;;;6.75;100.00
33075;BME280;19433;51.292;6.868;2023-02-11T19:51:16;102454.75;;;6.76;100.00
33075;BME280;19433;51.292;6.868;2023-02-11T19:53:42;102478.56;;;6.87;100.00
33075;BME280;19433;51.292;6.868;2023-02-11T19:56:08;102463.97;;;6.75;100.00
33075;BME280;19433;51.292;6.868;2023-02-11T19:58:35;102460.66;;;6.72;100.00
33075;BME280;19433;51.292;6.868;2023-02-11T20:01:06;102472.34;;;6.74;100.00
33075;BME280;19433;51.292;6.868;2023-02-11T20:03:31;102467.16;;;6.70;100.00
33075;BME280;19433;51.292;6.868;2023-02-11T20:05:57;102464.66;;;6.67;100.00
33075;BME280;19433;51.292;6.868;2023-02-11T20:08:22;102474.75;;;6.67;100.00
33075;BME280;19433;51.292;6.868;2023-02-11T20:10:47;102470.88;;;6.69;100.00
33075;BME280;19433;51.292;6.868;2023-02-11T20:13:13;102473.59;;;6.81;100.00
33075;BME280;19433;51.292;6.868;2023-02-11T20:15:38;102463.78;;;6.67;100.00
33075;BME280;19433;51.292;6.868;2023-02-11T20:18:04;102477.38;;;6.68;100.00
33075;BME280;19433;51.292;6.868;2023-02-11T20:20:29;102466.28;;;6.59;100.00
33075;BME280;19433;51.292;6.868;2023-02-11T20:22:54;102486.38;;;6.59;100.00
33075;BME280;19433;51.292;6.868;2023-02-11T20:25:20;102486.38;;;6.59;100.00
33075;BME280;19433;51.292;6.868;2023-02-11T20:27:45;102487.94;;;6.84;100.00
33075;BME280;19433;51.292;6.868;2023-02-11T20:30:11;102477.34;;;6.80;100.00
33075;BME280;19433;51.292;6.868;2023-02-11T20:32:37;102488.94;;;6.83;100.00
33075;BME280;19433;51.292;6.868;2023-02-11T20:35:07;102486.31;;;6.82;100.00
33075;BME280;19433;51.292;6.868;2023-02-11T20:37:32;102485.38;;;6.72;100.00
33075;BME280;19433;51.292;6.868;2023-02-11T20:39:58;102485.88;;;6.65;100.00
33075;BME280;19433;51.292;6.868;2023-02-11T20:42:24;102480.38;;;6.65;100.00
33075;BME280;19433;51.292;6.868;2023-02-11T20:44:49;102495.25;;;6.63;100.00
33075;BME280;19433;51.292;6.868;2023-02-11T20:47:16;102486.25;;;6.61;100.00
33075;BME280;19433;51.292;6.868;2023-02-11T20:49:41;102483.31;;;6.53;100.00
33075;BME280;19433;51.292;6.868;2023-02-11T20:52:06;102486.50;;;6.58;100.00
33075;BME280;19433;51.292;6.868;2023-02-11T20:54:32;102504.94;;;6.78;100.00
33075;BME280;19433;51.292;6.868;2023-02-11T20:56:58;102508.78;;;6.87;100.00
33075;BME280;19433;51.292;6.868;2023-02-11T20:59:24;102507.56;;;6.80;100.00
33075;BME280;19433;51.292;6.868;2023-02-11T21:01:52;102522.03;;;6.82;100.00
33075;BME280;19433;51.292;6.868;2023-02-11T21:04:29;102524.25;;;6.88;100.00
33075;BME280;19433;51.292;6.868;2023-02-11T21:06:57;102516.53;;;6.82;100.00
33075;BME280;19433;51.292;6.868;2023-02-11T21:09:26;102524.25;;;6.88;100.00
33075;BME280;19433;51.292;6.868;2023-02-11T21:11:52;102523.53;;;6.86;100.00
33075;BME280;19433;51.292;6.868;2023-02-11T21:14:18;102529.34;;;6.92;100.00
33075;BME280;19433;51.292;6.868;2023-02-11T21:16:45;102532.59;;;6.97;100.00
33075;BME280;19433;51.292;6.868;2023-02-11T21:19:11;102532.72;;;6.96;100.00
33075;BME280;19433;51.292;6.868;2023-02-11T21:21:37;102526.41;;;6.84;100.00
33075;BME280;19433;51.292;6.868;2023-02-11T21:24:03;102519.03;;;6.85;100.00
33075;BME280;19433;51.292;6.868;2023-02-11T21:26:29;102529.59;;;6.89;100.00
33075;BME280;19433;51.292;6.868;2023-02-11T21:28:54;102523.25;;;6.89;100.00
33075;BME280;19433;51.292;6.868;2023-02-11T21:31:24;102524.16;;;6.78;100.00
33075;BME280;19433;51.292;6.868;2023-02-11T21:33:50;102525.41;;;6.74;100.00
33075;BME280;19433;51.292;6.868;2023-02-11T21:36:17;102530.91;;;6.74;100.00
33075;BME280;19433;51.292;6.868;2023-02-11T21:38:43;102528.28;;;6.84;100.00
33075;BME280;19433;51.292;6.868;2023-02-11T21:41:08;102521.78;;;6.85;100.00
33075;BME280;19433;51.292;6.868;2023-02-11T21:43:34;102541.00;;;6.85;100.00
33075;BME280;19433;51.292;6.868;2023-02-11T21:45:59;102545.38;;;6.76;100.00
33075;BME280;19433;51.292;6.868;2023-02-11T21:48:25;102536.06;;;6.67;100.00
33075;BME280;19433;51.292;6.868;2023-02-11T21:50:52;102532.78;;;6.74;100.00
33075;BME280;19433;51.292;6.868;2023-02-11T21:53:18;102539.56;;;6.69;100.00
33075;BME280;19433;51.292;6.868;2023-02-11T21:55:43;102534.94;;;6.70;100.00
33075;BME280;19433;51.292;6.868;2023-02-11T21:58:10;102542.03;;;6.72;100.00
33075;BME280;19433;51.292;6.868;2023-02-11T22:00:36;102540.44;;;6.59;100.00
33075;BME280;19433;51.292;6.868;2023-02-11T22:03:02;102537.56;;;6.60;100.00
33075;BME280;19433;51.292;6.868;2023-02-11T22:05:27;102548.28;;;6.63;100.00
33075;BME280;19433;51.292;6.868;2023-02-11T22:07:52;102539.66;;;6.79;100.00
33075;BME280;19433;51.292;6.868;2023-02-11T22:10:18;102542.19;;;6.71;100.00
33075;BME280;19433;51.292;6.868;2023-02-11T22:12:43;102532.81;;;6.62;100.00
33075;BME280;19433;51.292;6.868;2023-02-11T22:15:09;102549.53;;;6.59;100.00
33075;BME280;19433;51.292;6.868;2023-02-11T22:17:34;102546.56;;;6.62;100.00
33075;BME280;19433;51.292;6.868;2023-02-11T22:19:59;102552.25;;;6.82;100.00
33075;BME280;19433;51.292;6.868;2023-02-11T22:22:26;102555.91;;;6.71;100.00
33075;BME280;19433;51.292;6.868;2023-02-11T22:24:53;102547.03;;;6.67;100.00
33075;BME280;19433;51.292;6.868;2023-02-11T22:27:18;102541.81;;;6.64;100.00
33075;BME280;19433;51.292;6.868;2023-02-11T22:29:45;102531.56;;;6.66;100.00
33075;BME280;19433;51.292;6.868;2023-02-11T22:32:10;102530.59;;;6.56;100.00
33075;BME280;19433;51.292;6.868;2023-02-11T22:34:35;102529.09;;;6.52;100.00
33075;BME280;19433;51.292;6.868;2023-02-11T22:37:01;102540.31;;;6.60;100.00
33075;BME280;19433;51.292;6.868;2023-02-11T22:39:28;102523.88;;;6.49;100.00
33075;BME280;19433;51.292;6.868;2023-02-11T22:41:53;102532.34;;;6.46;100.00
33075;BME280;19433;51.292;6.868;2023-02-11T22:44:21;102527.97;;;6.44;100.00
33075;BME280;19433;51.292;6.868;2023-02-11T22:46:47;102533.09;;;6.48;100.00
33075;BME280;19433;51.292;6.868;2023-02-11T22:49:14;102539.31;;;6.61;100.00
33075;BME280;19433;51.292;6.868;2023-02-11T22:51:40;102540.84;;;6.54;100.00
33075;BME280;19433;51.292;6.868;2023-02-11T22:54:07;102538.47;;;6.50;100.00
33075;BME280;19433;51.292;6.868;2023-02-11T22:56:35;102536.97;;;6.46;100.00
33075;BME280;19433;51.292;6.868;2023-02-11T22:59:03;102547.53;;;6.61;100.00
33075;BME280;19433;51.292;6.868;2023-02-11T23:01:29;102546.34;;;6.54;100.00
33075;BME280;19433;51.292;6.868;2023-02-11T23:03:55;102557.19;;;6.45;100.00
33075;BME280;19433;51.292;6.868;2023-02-11T23:06:20;102554.69;;;6.42;100.00
33075;BME280;19433;51.292;6.868;2023-02-11T23:08:46;102549.72;;;6.35;100.00
33075;BME280;19433;51.292;6.868;2023-02-11T23:11:15;102561.06;;;6.53;100.00
33075;BME280;19433;51.292;6.868;2023-02-11T23:13:42;102564.38;;;6.79;100.00
33075;BME280;19433;51.292;6.868;2023-02-11T23:16:10;102572.53;;;6.69;100.00
33075;BME280;19433;51.292;6.868;2023-02-11T23:18:37;102569.38;;;6.74;100.00
33075;BME280;19433;51.292;6.868;2023-02-11T23:21:05;102565.63;;;6.75;100.00
33075;BME280;19433;51.292;6.868;2023-02-11T23:23:31;102572.25;;;6.72;100.00
33075;BME280;19433;51.292;6.868;2023-02-11T23:25:56;102563.91;;;6.63;100.00
33075;BME280;19433;51.292;6.868;2023-02-11T23:28:22;102573.00;;;6.63;100.00
33075;BME280;19433;51.292;6.868;2023-02-11T23:30:47;102564.44;;;6.57;100.00
33075;BME280;19433;51.292;6.868;2023-02-11T23:33:12;102563.78;;;6.64;100.00
33075;BME280;19433;51.292;6.868;2023-02-11T23:35:37;102567.53;;;6.63;100.00
33075;BME280;19433;51.292;6.868;2023-02-11T23:38:03;102571.50;;;6.59;100.00
33075;BME280;19433;51.292;6.868;2023-02-11T23:40:28;102561.69;;;6.57;100.00
33075;BME280;19433;51.292;6.868;2023-02-11T23:42:53;102568.16;;;6.67;100.00
33075;BME280;19433;51.292;6.868;2023-02-11T23:45:19;102573.88;;;6.64;100.00
33075;BME280;19433;51.292;6.868;2023-02-11T23:47:44;102573.03;;;6.52;100.00
33075;BME280;19433;51.292;6.868;2023-02-11T23:50:10;102578.03;;;6.47;100.00
33075;BME280;19433;51.292;6.868;2023-02-11T23:52:36;102571.16;;;6.53;100.00
33075;BME280;19433;51.292;6.868;2023-02-11T23:55:01;102578.75;;;6.60;100.00
33075;BME280;19433;51.292;6.868;2023-02-11T23:57:26;102573.78;;;6.54;100.00
33075;BME280;19433;51.292;6.868;2023-02-11T23:59:52;102581.03;;;6.55;100.00
